Pagrindinis puslapis
METAR-TAF:

METAR-TAF

Oro uostai :

Sarbriukenas, Vokietija

platuma: 49-13N, ilguma: 007-07E, Aukštis: 322 m

Dabartinis oras

Ataskaita buvo paskelbta 39 minutes, ne 02:20 UTC
Vėjas 7 kt iš Šiaurės Rytų, svyruoja nuo Šiaurės ir Rytų/Šiaurės Rytų
Temperatūra 12°C
Drėgmė 67%
Slėgis 1026 hPa
Matomumas 10 km arba daugiau
nėra debesų žemiau 1500 m ir nėra kamuolinių lietaus debesų

METAR: EDDR 080220Z 04007KT 010V070 CAVOK 12/06 Q1026

Laikas: 04:59 (02:59 UTC)

Prognozė

Ataskaita buvo paskelbta 3 valandos ir 59 minutes, ne 23:00 UTC
Prognozė galioja nuo 08 metu 00 UTC su 08 metu 24 UTC
Vėjas 6 kt iš Šiaurės Rytų
Matomumas 10 km arba daugiau
nėra debesų žemiau 1500 m ir nėra kamuolinių lietaus debesų
Tapsmas
nuo 08 metu 10 UTC su 08 metu 12 UTC
Vėjas 3 kt nuo kintamojo kryptimis

TAF: EDDR 072300Z 0800/0824 05006KT CAVOK BECMG 0810/0812 VRB03KT

Orai ataskaitas ir orų prognozės (METAR, TAF).

turimą stotys yra geltonos ir raudonos taškus žemėlapyje.

Perkelti pele per norėdami pamatyti stoties vardą.

Tada spustelėkite, norėdami matyti oro stebėjimo ir prognozės.

Norėdami pakeisti žemėlapį: spustelėkite ant žalios mygtukų su juodo kryžiaus žemyn,; žalią mygtuką su brūkšneliu, jei norite nutolinti; arba žalių rodyklių gretimoms žemėlapius.


METAR-TAF: